Time,TemperatureF,DewpointF,PressureIn,WindDirection,WindDirectionDegrees,WindSpeedMPH,WindSpeedGustMPH,Humidity,HourlyPrecipIn,Conditions,Clouds,dailyrainin,SoftwareType,DateUTC
2013-08-20 00:11:00,65.1,46.6,29.85,ESE,114,0.0,0.0,51,0.00,,,0.00,meteobridge,2013-08-20 07:11:00,
2013-08-20 00:27:00,64.2,46.8,29.85,ESE,114,0.0,0.0,53,0.00,,,0.00,meteobridge,2013-08-20 07:27:00,
2013-08-20 00:42:00,63.9,46.4,29.85,ESE,114,0.0,0.0,53,0.00,,,0.00,meteobridge,2013-08-20 07:42:00,
2013-08-20 00:57:00,63.0,46.0,29.85,ESE,114,0.0,0.0,54,0.00,,,0.00,meteobridge,2013-08-20 07:57:00,
2013-08-20 01:12:00,62.2,45.9,29.85,ESE,114,0.0,0.0,55,0.00,,,0.00,meteobridge,2013-08-20 08:12:00,
2013-08-20 01:27:00,62.6,45.7,29.85,ESE,114,0.0,0.0,54,0.00,,,0.00,meteobridge,2013-08-20 08:27:00,
2013-08-20 01:43:00,62.4,46.0,29.85,WSW,241,0.0,0.0,55,0.00,,,0.00,meteobridge,2013-08-20 08:43:00,
2013-08-20 01:58:00,61.9,46.0,29.85,WSW,241,0.0,0.0,56,0.00,,,0.00,meteobridge,2013-08-20 08:58:00,
2013-08-20 02:13:00,61.2,46.2,29.85,WSW,241,0.0,0.0,58,0.00,,,0.00,meteobridge,2013-08-20 09:13:00,
2013-08-20 02:28:00,60.6,46.2,29.86,WSW,241,0.0,0.0,59,0.00,,,0.00,meteobridge,2013-08-20 09:28:00,
2013-08-20 02:43:00,60.4,45.7,29.86,WSW,241,0.0,0.0,58,0.00,,,0.00,meteobridge,2013-08-20 09:43:00,
2013-08-20 02:58:00,60.4,46.0,29.86,East,84,0.0,0.0,59,0.00,,,0.00,meteobridge,2013-08-20 09:58:00,
2013-08-20 03:13:00,60.8,45.9,29.86,East,86,0.0,0.0,58,0.00,,,0.00,meteobridge,2013-08-20 10:13:00,
2013-08-20 03:29:00,61.3,46.0,29.87,WSW,256,0.0,0.9,57,0.00,,,0.00,meteobridge,2013-08-20 10:29:00,
2013-08-20 03:44:00,61.3,45.5,29.87,SSE,163,0.0,0.0,56,0.00,,,0.00,meteobridge,2013-08-20 10:44:00,
2013-08-20 03:59:00,61.3,45.5,29.87,SSE,151,0.0,0.0,56,0.00,,,0.00,meteobridge,2013-08-20 10:59:00,
2013-08-20 04:14:00,60.8,44.6,29.88,WSW,255,0.0,2.0,55,0.00,,,0.00,meteobridge,2013-08-20 11:14:00,
2013-08-20 04:29:00,60.3,44.4,29.88,NE,50,0.0,0.0,56,0.00,,,0.00,meteobridge,2013-08-20 11:29:00,
2013-08-20 04:45:00,59.5,44.2,29.88,SW,234,0.0,0.9,57,0.00,,,0.00,meteobridge,2013-08-20 11:45:00,
2013-08-20 05:00:00,59.2,43.9,29.88,SSW,204,0.0,0.0,57,0.00,,,0.00,meteobridge,2013-08-20 12:00:00,
2013-08-20 05:15:00,59.0,44.2,29.88,NE,50,0.0,2.0,58,0.00,,,0.00,meteobridge,2013-08-20 12:15:00,
2013-08-20 05:30:00,58.8,44.6,29.89,SE,135,0.0,0.9,59,0.00,,,0.00,meteobridge,2013-08-20 12:30:00,
2013-08-20 05:45:00,58.3,44.4,29.90,WSW,245,0.0,0.0,60,0.00,,,0.00,meteobridge,2013-08-20 12:45:00,
2013-08-20 06:00:00,57.6,44.2,29.90,SE,144,0.0,0.0,61,0.00,,,0.00,meteobridge,2013-08-20 13:00:00,
2013-08-20 06:15:00,57.6,44.6,29.91,ESE,103,0.0,0.0,62,0.00,,,0.00,meteobridge,2013-08-20 13:15:00,
2013-08-20 06:30:00,57.2,44.2,29.91,West,260,0.0,0.0,62,0.00,,,0.00,meteobridge,2013-08-20 13:30:00,
2013-08-20 06:45:00,57.6,45.1,29.92,South,181,0.0,0.9,63,0.00,,,0.00,meteobridge,2013-08-20 13:45:00,
2013-08-20 07:01:00,57.9,45.9,29.93,West,277,0.0,0.0,64,0.00,,,0.00,meteobridge,2013-08-20 14:01:00,
2013-08-20 07:16:00,60.1,45.7,29.93,WSW,246,0.0,0.9,59,0.00,,,0.00,meteobridge,2013-08-20 14:16:00,
2013-08-20 07:31:00,59.7,45.3,29.94,NNE,32,0.0,0.9,59,0.00,,,0.00,meteobridge,2013-08-20 14:31:00,
2013-08-20 07:46:00,59.4,45.9,29.94,NNE,32,0.9,0.9,61,0.00,,,0.00,meteobridge,2013-08-20 14:46:00,
2013-08-20 08:01:00,61.3,45.5,29.94,West,277,0.0,0.0,56,0.00,,,0.00,meteobridge,2013-08-20 15:01:00,
2013-08-20 08:16:00,62.1,45.7,29.95,WSW,255,0.0,0.0,55,0.00,,,0.00,meteobridge,2013-08-20 15:16:00,
2013-08-20 08:31:00,62.8,46.9,29.96,WSW,238,0.0,0.9,56,0.00,,,0.00,meteobridge,2013-08-20 15:31:00,
2013-08-20 08:46:00,65.5,46.4,29.95,SE,124,0.0,0.9,50,0.00,,,0.00,meteobridge,2013-08-20 15:46:00,
2013-08-20 09:02:00,66.9,46.6,29.96,SE,134,0.0,4.0,48,0.00,,,0.00,meteobridge,2013-08-20 16:02:00,
2013-08-20 09:17:00,68.7,47.7,29.96,ESE,114,0.0,0.9,47,0.00,,,0.00,meteobridge,2013-08-20 16:17:00,
2013-08-20 09:32:00,70.0,47.1,29.95,ESE,123,0.9,0.9,44,0.00,,,0.00,meteobridge,2013-08-20 16:32:00,
2013-08-20 09:47:00,71.8,47.5,29.96,ESE,118,0.0,0.9,42,0.00,,,0.00,meteobridge,2013-08-20 16:47:00,
2013-08-20 10:02:00,73.0,47.3,29.96,NNW,329,0.0,0.9,40,0.00,,,0.00,meteobridge,2013-08-20 17:02:00,
2013-08-20 10:17:00,73.2,46.0,29.95,SE,133,0.0,0.0,38,0.00,,,0.00,meteobridge,2013-08-20 17:17:00,
2013-08-20 10:32:00,74.5,47.8,29.96,ESE,120,0.0,2.0,39,0.00,,,0.00,meteobridge,2013-08-20 17:32:00,
2013-08-20 10:47:00,75.4,43.5,29.95,West,263,2.0,6.0,32,0.00,,,0.00,meteobridge,2013-08-20 17:47:00,
2013-08-20 11:02:00,75.9,46.2,29.95,SSW,207,0.9,2.0,35,0.00,,,0.00,meteobridge,2013-08-20 18:02:00,
2013-08-20 11:17:00,76.5,46.0,29.95,WSW,238,0.9,0.9,34,0.00,,,0.00,meteobridge,2013-08-20 18:17:00,
2013-08-20 11:33:00,77.2,45.0,29.95,NW,307,0.0,4.0,32,0.00,,,0.00,meteobridge,2013-08-20 18:33:00,
2013-08-20 11:48:00,78.3,46.0,29.95,SSW,197,0.0,2.0,32,0.00,,,0.00,meteobridge,2013-08-20 18:48:00,
2013-08-20 12:03:00,77.4,43.5,29.95,SW,226,2.0,6.0,30,0.00,,,0.00,meteobridge,2013-08-20 19:03:00,
2013-08-20 12:18:00,78.1,45.0,29.95,South,191,0.0,0.9,31,0.00,,,0.00,meteobridge,2013-08-20 19:18:00,
2013-08-20 12:33:00,79.3,43.3,29.94,NNE,15,0.0,0.9,28,0.00,,,0.00,meteobridge,2013-08-20 19:33:00,
2013-08-20 12:48:00,80.6,41.5,29.94,WSW,248,0.9,2.9,25,0.00,,,0.00,meteobridge,2013-08-20 19:48:00,
2013-08-20 13:03:00,80.1,41.0,29.94,SSW,203,2.0,2.0,25,0.00,,,0.00,meteobridge,2013-08-20 20:03:00,
2013-08-20 13:18:00,80.8,42.6,29.93,SW,226,0.0,0.9,26,0.00,,,0.00,meteobridge,2013-08-20 20:18:00,
2013-08-20 13:33:00,79.7,39.7,29.93,West,260,0.0,4.9,24,0.00,,,0.00,meteobridge,2013-08-20 20:33:00,
2013-08-20 13:48:00,80.1,40.1,29.93,SSE,161,0.0,2.0,24,0.00,,,0.00,meteobridge,2013-08-20 20:48:00,
2013-08-20 14:03:00,80.1,41.0,29.93,WSW,247,0.0,2.9,25,0.00,,,0.00,meteobridge,2013-08-20 21:03:00,
2013-08-20 14:18:00,80.1,38.8,29.92,West,278,0.0,2.0,23,0.00,,,0.00,meteobridge,2013-08-20 21:18:00,
2013-08-20 14:34:00,81.3,42.1,29.92,WSW,248,0.0,0.9,25,0.00,,,0.00,meteobridge,2013-08-20 21:34:00,
2013-08-20 14:49:00,81.7,40.3,29.91,SW,231,0.0,0.9,23,0.00,,,0.00,meteobridge,2013-08-20 21:49:00,
2013-08-20 15:04:00,81.5,42.3,29.91,SSW,194,0.0,0.0,25,0.00,,,0.00,meteobridge,2013-08-20 22:04:00,
2013-08-20 15:19:00,82.8,41.2,29.91,SSW,213,0.0,0.0,23,0.00,,,0.00,meteobridge,2013-08-20 22:19:00,
2013-08-20 15:34:00,82.2,38.5,29.90,West,261,0.9,2.9,21,0.00,,,0.00,meteobridge,2013-08-20 22:34:00,
2013-08-20 15:49:00,82.6,37.4,29.89,SW,224,0.0,0.9,20,0.00,,,0.00,meteobridge,2013-08-20 22:49:00,
2013-08-20 16:04:00,82.6,36.1,29.89,SW,236,0.0,0.9,19,0.00,,,0.00,meteobridge,2013-08-20 23:04:00,
2013-08-20 16:19:00,82.8,36.3,29.89,North,351,0.0,2.0,19,0.00,,,0.00,meteobridge,2013-08-20 23:19:00,
2013-08-20 16:34:00,83.8,34.3,29.88,SW,222,2.0,2.9,17,0.00,,,0.00,meteobridge,2013-08-20 23:34:00,
2013-08-20 16:49:00,83.8,37.2,29.88,SW,235,0.0,0.0,19,0.00,,,0.00,meteobridge,2013-08-20 23:49:00,
2013-08-20 17:04:00,84.6,31.8,29.88,SSW,205,2.9,6.0,15,0.00,,,0.00,meteobridge,2013-08-21 00:04:00,
2013-08-20 17:19:00,84.0,37.4,29.88,NNW,333,0.0,0.9,19,0.00,,,0.00,meteobridge,2013-08-21 00:19:00,
2013-08-20 17:34:00,83.1,35.2,29.88,West,263,0.0,0.9,18,0.00,,,0.00,meteobridge,2013-08-21 00:34:00,
2013-08-20 17:49:00,81.9,35.6,29.88,ESE,116,0.0,0.0,19,0.00,,,0.00,meteobridge,2013-08-21 00:49:00,
2013-08-20 18:05:00,81.1,37.6,29.88,West,266,0.0,0.0,21,0.00,,,0.00,meteobridge,2013-08-21 01:05:00,
2013-08-20 18:20:00,80.4,36.9,29.88,SSW,199,0.0,0.0,21,0.00,,,0.00,meteobridge,2013-08-21 01:20:00,
2013-08-20 18:35:00,80.2,34.2,29.88,SW,233,0.0,0.0,19,0.00,,,0.00,meteobridge,2013-08-21 01:35:00,
2013-08-20 18:50:00,79.5,36.1,29.88,West,259,0.0,0.9,21,0.00,,,0.00,meteobridge,2013-08-21 01:50:00,
2013-08-20 19:05:00,78.3,35.1,29.88,WSW,241,0.0,0.9,21,0.00,,,0.00,meteobridge,2013-08-21 02:05:00,
2013-08-20 19:20:00,76.5,36.0,29.88,WSW,241,0.0,0.0,23,0.00,,,0.00,meteobridge,2013-08-21 02:20:00,
2013-08-20 19:35:00,74.1,36.0,29.88,WSW,241,0.0,0.0,25,0.00,,,0.00,meteobridge,2013-08-21 02:35:00,
2013-08-20 19:51:00,72.9,37.8,29.88,WSW,241,0.0,0.0,28,0.00,,,0.00,meteobridge,2013-08-21 02:51:00,
2013-08-20 20:06:00,70.5,36.7,29.89,WSW,241,0.0,0.0,29,0.00,,,0.00,meteobridge,2013-08-21 03:06:00,
2013-08-20 20:21:00,68.4,37.4,29.89,WSW,241,0.0,0.0,32,0.00,,,0.00,meteobridge,2013-08-21 03:21:00,
2013-08-20 20:36:00,66.9,36.9,29.90,WSW,241,0.0,0.0,33,0.00,,,0.00,meteobridge,2013-08-21 03:36:00,
2013-08-20 20:51:00,65.5,36.3,29.91,WSW,241,0.0,0.0,34,0.00,,,0.00,meteobridge,2013-08-21 03:51:00,
2013-08-20 21:06:00,64.8,35.8,29.91,WSW,241,0.0,0.0,34,0.00,,,0.00,meteobridge,2013-08-21 04:06:00,
2013-08-20 21:21:00,64.0,35.8,29.91,WSW,241,0.0,0.0,35,0.00,,,0.00,meteobridge,2013-08-21 04:21:00,
2013-08-20 21:37:00,63.3,35.2,29.92,WSW,241,0.0,0.0,35,0.00,,,0.00,meteobridge,2013-08-21 04:37:00,
2013-08-20 21:52:00,62.6,35.2,29.92,WSW,240,0.0,0.0,36,0.00,,,0.00,meteobridge,2013-08-21 04:52:00,
2013-08-20 22:07:00,62.2,35.6,29.92,WSW,241,0.0,0.0,37,0.00,,,0.00,meteobridge,2013-08-21 05:07:00,
2013-08-20 22:22:00,62.1,34.9,29.93,ESE,120,0.0,0.0,36,0.00,,,0.00,meteobridge,2013-08-21 05:22:00,
2013-08-20 22:37:00,60.8,36.3,29.93,ESE,120,0.0,0.0,40,0.00,,,0.00,meteobridge,2013-08-21 05:37:00,
2013-08-20 22:52:00,59.2,36.1,29.93,ESE,120,0.0,0.0,42,0.00,,,0.00,meteobridge,2013-08-21 05:52:00,
2013-08-20 23:07:00,59.2,36.7,29.93,ESE,121,0.0,0.0,43,0.00,,,0.00,meteobridge,2013-08-21 06:07:00,
2013-08-20 23:23:00,58.8,35.8,29.93,ESE,121,0.0,0.0,42,0.00,,,0.00,meteobridge,2013-08-21 06:23:00,
2013-08-20 23:38:00,58.1,35.1,29.93,ESE,120,0.0,0.0,42,0.00,,,0.00,meteobridge,2013-08-21 06:38:00,